sensor_id;sensor_type;location;lat;lon;timestamp;temperature;humidity
666;DHT22;315;48.738;9.126;2022-10-16T00:00:44;15.70;99.90
666;DHT22;315;48.738;9.126;2022-10-16T00:03:10;15.80;99.90
666;DHT22;315;48.738;9.126;2022-10-16T00:05:41;15.80;99.90
666;DHT22;315;48.738;9.126;2022-10-16T00:08:07;15.80;99.90
666;DHT22;315;48.738;9.126;2022-10-16T00:10:33;15.80;99.90
666;DHT22;315;48.738;9.126;2022-10-16T00:12:59;15.80;99.90
666;DHT22;315;48.738;9.126;2022-10-16T00:15:25;15.70;99.90
666;DHT22;315;48.738;9.126;2022-10-16T00:17:50;15.70;99.90
666;DHT22;315;48.738;9.126;2022-10-16T00:20:16;15.60;99.90
666;DHT22;315;48.738;9.126;2022-10-16T00:22:41;15.50;99.90
666;DHT22;315;48.738;9.126;2022-10-16T00:25:07;15.50;99.90
666;DHT22;315;48.738;9.126;2022-10-16T00:27:33;15.50;99.90
666;DHT22;315;48.738;9.126;2022-10-16T00:29:59;15.50;99.90
666;DHT22;315;48.738;9.126;2022-10-16T00:32:24;15.50;99.90
666;DHT22;315;48.738;9.126;2022-10-16T00:34:50;15.40;99.90
666;DHT22;315;48.738;9.126;2022-10-16T00:37:16;15.70;99.90
666;DHT22;315;48.738;9.126;2022-10-16T00:39:41;15.40;99.90
666;DHT22;315;48.738;9.126;2022-10-16T00:42:12;15.30;99.90
666;DHT22;315;48.738;9.126;2022-10-16T00:44:51;15.30;99.90
666;DHT22;315;48.738;9.126;2022-10-16T00:47:24;15.30;99.90
666;DHT22;315;48.738;9.126;2022-10-16T00:49:58;15.30;99.90
666;DHT22;315;48.738;9.126;2022-10-16T00:52:25;15.40;99.90
666;DHT22;315;48.738;9.126;2022-10-16T00:54:52;15.40;99.90
666;DHT22;315;48.738;9.126;2022-10-16T00:57:19;15.40;99.90
666;DHT22;315;48.738;9.126;2022-10-16T00:59:45;15.30;99.90
666;DHT22;315;48.738;9.126;2022-10-16T01:02:13;15.30;99.90
666;DHT22;315;48.738;9.126;2022-10-16T01:04:57;15.30;99.90
666;DHT22;315;48.738;9.126;2022-10-16T01:07:53;15.40;99.90
666;DHT22;315;48.738;9.126;2022-10-16T01:13:11;15.30;99.90
666;DHT22;315;48.738;9.126;2022-10-16T01:18:16;15.30;99.90
666;DHT22;315;48.738;9.126;2022-10-16T01:20:53;15.30;99.90
666;DHT22;315;48.738;9.126;2022-10-16T01:28:11;15.40;99.90
666;DHT22;315;48.738;9.126;2022-10-16T01:30:40;15.30;99.90
666;DHT22;315;48.738;9.126;2022-10-16T01:33:20;15.40;99.90
666;DHT22;315;48.738;9.126;2022-10-16T01:35:50;15.30;99.90
666;DHT22;315;48.738;9.126;2022-10-16T01:38:21;15.30;99.90
666;DHT22;315;48.738;9.126;2022-10-16T01:40:55;15.30;99.90
666;DHT22;315;48.738;9.126;2022-10-16T01:43:35;15.30;99.90
666;DHT22;315;48.738;9.126;2022-10-16T01:46:03;15.30;99.90
666;DHT22;315;48.738;9.126;2022-10-16T01:48:29;15.30;99.90
666;DHT22;315;48.738;9.126;2022-10-16T01:51:11;15.20;99.90
666;DHT22;315;48.738;9.126;2022-10-16T01:53:41;15.20;99.90
666;DHT22;315;48.738;9.126;2022-10-16T01:56:11;15.30;99.90
666;DHT22;315;48.738;9.126;2022-10-16T01:58:46;15.20;99.90
666;DHT22;315;48.738;9.126;2022-10-16T02:01:15;15.20;99.90
666;DHT22;315;48.738;9.126;2022-10-16T02:03:42;15.10;99.90
666;DHT22;315;48.738;9.126;2022-10-16T02:06:09;15.10;99.90
666;DHT22;315;48.738;9.126;2022-10-16T02:08:35;15.10;99.90
666;DHT22;315;48.738;9.126;2022-10-16T02:11:01;15.00;99.90
666;DHT22;315;48.738;9.126;2022-10-16T02:13:39;15.00;99.90
666;DHT22;315;48.738;9.126;2022-10-16T02:16:06;15.00;99.90
666;DHT22;315;48.738;9.126;2022-10-16T02:18:32;15.00;99.90
666;DHT22;315;48.738;9.126;2022-10-16T02:21:22;15.00;99.90
666;DHT22;315;48.738;9.126;2022-10-16T02:26:46;15.10;99.90
666;DHT22;315;48.738;9.126;2022-10-16T02:29:16;15.10;99.90
666;DHT22;315;48.738;9.126;2022-10-16T02:31:46;15.20;99.90
666;DHT22;315;48.738;9.126;2022-10-16T02:34:14;15.20;99.90
666;DHT22;315;48.738;9.126;2022-10-16T02:36:42;15.20;99.90
666;DHT22;315;48.738;9.126;2022-10-16T02:39:08;15.20;99.90
666;DHT22;315;48.738;9.126;2022-10-16T02:41:34;15.20;99.90
666;DHT22;315;48.738;9.126;2022-10-16T02:43:59;15.20;99.90
666;DHT22;315;48.738;9.126;2022-10-16T02:46:25;15.20;99.90
666;DHT22;315;48.738;9.126;2022-10-16T02:48:50;15.20;99.90
666;DHT22;315;48.738;9.126;2022-10-16T02:51:16;15.30;99.90
666;DHT22;315;48.738;9.126;2022-10-16T02:53:41;15.20;99.90
666;DHT22;315;48.738;9.126;2022-10-16T02:56:07;15.30;99.90
666;DHT22;315;48.738;9.126;2022-10-16T02:58:32;15.30;99.90
666;DHT22;315;48.738;9.126;2022-10-16T03:00:58;15.30;99.90
666;DHT22;315;48.738;9.126;2022-10-16T03:03:23;15.30;99.90
666;DHT22;315;48.738;9.126;2022-10-16T03:05:49;15.20;99.90
666;DHT22;315;48.738;9.126;2022-10-16T03:08:14;15.20;99.90
666;DHT22;315;48.738;9.126;2022-10-16T03:10:40;15.20;99.90
666;DHT22;315;48.738;9.126;2022-10-16T03:13:06;15.20;99.90
666;DHT22;315;48.738;9.126;2022-10-16T03:15:32;15.20;99.90
666;DHT22;315;48.738;9.126;2022-10-16T03:17:58;15.20;99.90
666;DHT22;315;48.738;9.126;2022-10-16T03:20:24;15.20;99.90
666;DHT22;315;48.738;9.126;2022-10-16T03:22:50;15.20;99.90
666;DHT22;315;48.738;9.126;2022-10-16T03:25:15;15.20;99.90
666;DHT22;315;48.738;9.126;2022-10-16T03:27:41;15.20;99.90
666;DHT22;315;48.738;9.126;2022-10-16T03:30:07;15.20;99.90
666;DHT22;315;48.738;9.126;2022-10-16T03:32:33;15.10;99.90
666;DHT22;315;48.738;9.126;2022-10-16T03:34:58;15.10;99.90
666;DHT22;315;48.738;9.126;2022-10-16T03:37:24;15.10;99.90
666;DHT22;315;48.738;9.126;2022-10-16T03:39:49;15.10;99.90
666;DHT22;315;48.738;9.126;2022-10-16T03:42:15;15.10;99.90
666;DHT22;315;48.738;9.126;2022-10-16T03:44:40;15.20;99.90
666;DHT22;315;48.738;9.126;2022-10-16T03:47:06;15.20;99.90
666;DHT22;315;48.738;9.126;2022-10-16T03:49:32;15.20;99.90
666;DHT22;315;48.738;9.126;2022-10-16T03:51:57;15.10;99.90
666;DHT22;315;48.738;9.126;2022-10-16T03:54:23;15.10;99.90
666;DHT22;315;48.738;9.126;2022-10-16T03:56:48;15.10;99.90
666;DHT22;315;48.738;9.126;2022-10-16T03:59:14;15.10;99.90
666;DHT22;315;48.738;9.126;2022-10-16T04:01:39;15.10;99.90
666;DHT22;315;48.738;9.126;2022-10-16T04:04:05;15.10;99.90
666;DHT22;315;48.738;9.126;2022-10-16T04:06:30;15.10;99.90
666;DHT22;315;48.738;9.126;2022-10-16T04:08:56;15.10;99.90
666;DHT22;315;48.738;9.126;2022-10-16T04:11:22;15.10;99.90
666;DHT22;315;48.738;9.126;2022-10-16T04:13:48;15.10;99.90
666;DHT22;315;48.738;9.126;2022-10-16T04:16:13;15.10;99.90
666;DHT22;315;48.738;9.126;2022-10-16T04:18:39;15.10;99.90
666;DHT22;315;48.738;9.126;2022-10-16T04:21:06;15.10;99.90
666;DHT22;315;48.738;9.126;2022-10-16T04:23:32;15.10;99.90
666;DHT22;315;48.738;9.126;2022-10-16T04:25:57;15.10;99.90
666;DHT22;315;48.738;9.126;2022-10-16T04:28:23;15.10;99.90
666;DHT22;315;48.738;9.126;2022-10-16T04:30:49;15.10;99.90
666;DHT22;315;48.738;9.126;2022-10-16T04:33:14;15.10;99.90
666;DHT22;315;48.738;9.126;2022-10-16T04:35:40;15.10;99.90
666;DHT22;315;48.738;9.126;2022-10-16T04:38:05;15.10;99.90
666;DHT22;315;48.738;9.126;2022-10-16T04:40:31;15.10;99.90
666;DHT22;315;48.738;9.126;2022-10-16T04:42:58;15.10;99.90
666;DHT22;315;48.738;9.126;2022-10-16T04:45:24;15.10;99.90
666;DHT22;315;48.738;9.126;2022-10-16T04:47:50;15.10;99.90
666;DHT22;315;48.738;9.126;2022-10-16T04:50:16;15.10;99.90
666;DHT22;315;48.738;9.126;2022-10-16T04:52:41;15.10;99.90
666;DHT22;315;48.738;9.126;2022-10-16T04:55:07;15.10;99.90
666;DHT22;315;48.738;9.126;2022-10-16T04:57:32;15.10;99.90
666;DHT22;315;48.738;9.126;2022-10-16T04:59:58;15.10;99.90
666;DHT22;315;48.738;9.126;2022-10-16T05:02:24;15.10;99.90
666;DHT22;315;48.738;9.126;2022-10-16T05:04:50;15.00;99.90
666;DHT22;315;48.738;9.126;2022-10-16T05:07:16;15.00;99.90
666;DHT22;315;48.738;9.126;2022-10-16T05:09:42;15.00;99.90
666;DHT22;315;48.738;9.126;2022-10-16T05:12:07;15.00;99.90
666;DHT22;315;48.738;9.126;2022-10-16T05:14:33;15.10;99.90
666;DHT22;315;48.738;9.126;2022-10-16T05:16:59;15.10;99.90
666;DHT22;315;48.738;9.126;2022-10-16T05:19:25;15.10;99.90
666;DHT22;315;48.738;9.126;2022-10-16T05:21:51;15.10;99.90
666;DHT22;315;48.738;9.126;2022-10-16T05:24:16;15.00;99.90
666;DHT22;315;48.738;9.126;2022-10-16T05:26:42;15.00;99.90
666;DHT22;315;48.738;9.126;2022-10-16T05:29:08;14.90;99.90
666;DHT22;315;48.738;9.126;2022-10-16T05:31:34;14.80;99.90
666;DHT22;315;48.738;9.126;2022-10-16T05:33:59;14.80;99.90
666;DHT22;315;48.738;9.126;2022-10-16T05:36:25;14.80;99.90
666;DHT22;315;48.738;9.126;2022-10-16T05:38:51;14.80;99.90
666;DHT22;315;48.738;9.126;2022-10-16T05:41:17;14.80;99.90
666;DHT22;315;48.738;9.126;2022-10-16T05:43:48;14.70;99.90
666;DHT22;315;48.738;9.126;2022-10-16T05:46:14;14.60;99.90
666;DHT22;315;48.738;9.126;2022-10-16T05:48:39;14.80;99.90
666;DHT22;315;48.738;9.126;2022-10-16T05:51:07;14.80;99.90
666;DHT22;315;48.738;9.126;2022-10-16T05:53:34;14.80;99.90
666;DHT22;315;48.738;9.126;2022-10-16T05:56:00;14.90;99.90
666;DHT22;315;48.738;9.126;2022-10-16T05:58:29;14.90;99.90
666;DHT22;315;48.738;9.126;2022-10-16T06:01:01;15.00;99.90
666;DHT22;315;48.738;9.126;2022-10-16T06:03:27;15.00;99.90
666;DHT22;315;48.738;9.126;2022-10-16T06:05:53;15.10;99.90
666;DHT22;315;48.738;9.126;2022-10-16T06:08:20;15.20;99.90
666;DHT22;315;48.738;9.126;2022-10-16T06:10:46;15.20;99.90
666;DHT22;315;48.738;9.126;2022-10-16T06:13:13;15.30;99.90
666;DHT22;315;48.738;9.126;2022-10-16T06:15:40;15.30;99.90
666;DHT22;315;48.738;9.126;2022-10-16T06:18:08;15.30;99.90
666;DHT22;315;48.738;9.126;2022-10-16T06:20:34;15.40;99.90
666;DHT22;315;48.738;9.126;2022-10-16T06:22:59;15.50;99.90
666;DHT22;315;48.738;9.126;2022-10-16T06:25:25;15.70;99.90
666;DHT22;315;48.738;9.126;2022-10-16T06:27:51;15.70;99.90
666;DHT22;315;48.738;9.126;2022-10-16T06:30:16;15.70;99.90
666;DHT22;315;48.738;9.126;2022-10-16T06:32:41;15.70;99.90
666;DHT22;315;48.738;9.126;2022-10-16T06:35:07;15.80;99.90
666;DHT22;315;48.738;9.126;2022-10-16T06:37:33;15.70;99.90
666;DHT22;315;48.738;9.126;2022-10-16T06:39:58;15.80;99.90
666;DHT22;315;48.738;9.126;2022-10-16T06:42:25;15.90;99.90
666;DHT22;315;48.738;9.126;2022-10-16T06:44:50;16.00;99.90
666;DHT22;315;48.738;9.126;2022-10-16T06:47:16;16.30;99.90
666;DHT22;315;48.738;9.126;2022-10-16T06:49:41;16.60;99.90
666;DHT22;315;48.738;9.126;2022-10-16T06:52:07;17.10;99.90
666;DHT22;315;48.738;9.126;2022-10-16T06:54:32;17.20;99.90
666;DHT22;315;48.738;9.126;2022-10-16T06:56:58;17.30;99.90
666;DHT22;315;48.738;9.126;2022-10-16T06:59:25;17.20;99.90
666;DHT22;315;48.738;9.126;2022-10-16T07:01:50;17.10;99.90
666;DHT22;315;48.738;9.126;2022-10-16T07:04:16;17.10;99.90
666;DHT22;315;48.738;9.126;2022-10-16T07:06:41;17.00;99.90
666;DHT22;315;48.738;9.126;2022-10-16T07:09:10;17.00;99.90
666;DHT22;315;48.738;9.126;2022-10-16T07:11:37;17.00;99.90
666;DHT22;315;48.738;9.126;2022-10-16T07:14:04;17.00;99.90
666;DHT22;315;48.738;9.126;2022-10-16T07:16:31;17.10;99.90
666;DHT22;315;48.738;9.126;2022-10-16T07:18:59;17.10;99.90
666;DHT22;315;48.738;9.126;2022-10-16T07:21:33;17.20;99.90
666;DHT22;315;48.738;9.126;2022-10-16T07:24:03;17.20;99.90
666;DHT22;315;48.738;9.126;2022-10-16T07:26:31;17.20;99.90
666;DHT22;315;48.738;9.126;2022-10-16T07:28:58;17.10;99.90
666;DHT22;315;48.738;9.126;2022-10-16T07:31:24;17.10;99.90
666;DHT22;315;48.738;9.126;2022-10-16T07:33:50;17.10;99.90
666;DHT22;315;48.738;9.126;2022-10-16T07:36:18;17.10;99.90
666;DHT22;315;48.738;9.126;2022-10-16T07:38:44;17.10;99.90
666;DHT22;315;48.738;9.126;2022-10-16T07:41:12;17.10;99.90
666;DHT22;315;48.738;9.126;2022-10-16T07:43:39;17.10;99.90
666;DHT22;315;48.738;9.126;2022-10-16T07:46:05;17.10;99.90
666;DHT22;315;48.738;9.126;2022-10-16T07:48:32;17.20;99.90
666;DHT22;315;48.738;9.126;2022-10-16T07:51:04;17.30;99.90
666;DHT22;315;48.738;9.126;2022-10-16T07:53:31;17.30;99.90
666;DHT22;315;48.738;9.126;2022-10-16T07:56:04;17.30;99.90
666;DHT22;315;48.738;9.126;2022-10-16T07:58:30;17.40;99.90
666;DHT22;315;48.738;9.126;2022-10-16T08:00:57;17.30;99.90
666;DHT22;315;48.738;9.126;2022-10-16T08:03:23;17.30;99.90
666;DHT22;315;48.738;9.126;2022-10-16T08:05:49;17.20;99.90
666;DHT22;315;48.738;9.126;2022-10-16T08:08:16;17.20;99.90
666;DHT22;315;48.738;9.126;2022-10-16T08:10:42;17.40;99.90
666;DHT22;315;48.738;9.126;2022-10-16T08:13:08;17.50;99.90
666;DHT22;315;48.738;9.126;2022-10-16T08:15:33;17.70;99.90
666;DHT22;315;48.738;9.126;2022-10-16T08:18:01;17.90;99.90
666;DHT22;315;48.738;9.126;2022-10-16T08:20:28;18.00;99.90
666;DHT22;315;48.738;9.126;2022-10-16T08:22:54;18.20;99.90
666;DHT22;315;48.738;9.126;2022-10-16T08:25:22;18.30;99.90
666;DHT22;315;48.738;9.126;2022-10-16T08:27:47;18.40;99.90
666;DHT22;315;48.738;9.126;2022-10-16T08:30:13;18.50;99.90
666;DHT22;315;48.738;9.126;2022-10-16T08:32:40;18.50;99.90
666;DHT22;315;48.738;9.126;2022-10-16T08:35:07;18.70;99.90
666;DHT22;315;48.738;9.126;2022-10-16T08:37:33;19.00;99.90
666;DHT22;315;48.738;9.126;2022-10-16T08:39:59;19.30;99.90
666;DHT22;315;48.738;9.126;2022-10-16T08:42:40;19.30;99.90
666;DHT22;315;48.738;9.126;2022-10-16T08:50:40;19.10;99.90
666;DHT22;315;48.738;9.126;2022-10-16T08:53:06;19.00;99.90
666;DHT22;315;48.738;9.126;2022-10-16T08:55:42;18.90;99.90
666;DHT22;315;48.738;9.126;2022-10-16T08:58:21;18.80;99.90
666;DHT22;315;48.738;9.126;2022-10-16T09:00:55;18.90;99.90
666;DHT22;315;48.738;9.126;2022-10-16T09:03:31;18.70;99.90
666;DHT22;315;48.738;9.126;2022-10-16T09:11:30;19.70;99.90
666;DHT22;315;48.738;9.126;2022-10-16T09:14:03;20.00;99.90
666;DHT22;315;48.738;9.126;2022-10-16T09:16:44;20.40;99.90
666;DHT22;315;48.738;9.126;2022-10-16T09:19:16;20.80;99.90
666;DHT22;315;48.738;9.126;2022-10-16T09:21:45;20.90;99.90
666;DHT22;315;48.738;9.126;2022-10-16T09:24:17;21.90;99.90
666;DHT22;315;48.738;9.126;2022-10-16T09:26:44;22.80;99.90
666;DHT22;315;48.738;9.126;2022-10-16T09:29:14;22.50;99.90
666;DHT22;315;48.738;9.126;2022-10-16T09:31:41;22.10;99.90
666;DHT22;315;48.738;9.126;2022-10-16T09:36:45;23.50;99.90
666;DHT22;315;48.738;9.126;2022-10-16T09:39:12;25.50;99.90
666;DHT22;315;48.738;9.126;2022-10-16T09:41:39;26.50;99.90
666;DHT22;315;48.738;9.126;2022-10-16T09:44:22;26.10;99.90
666;DHT22;315;48.738;9.126;2022-10-16T09:46:49;25.10;99.90
666;DHT22;315;48.738;9.126;2022-10-16T09:49:25;24.80;99.90
666;DHT22;315;48.738;9.126;2022-10-16T09:52:09;25.90;99.90
666;DHT22;315;48.738;9.126;2022-10-16T09:54:36;28.70;99.90
666;DHT22;315;48.738;9.126;2022-10-16T09:57:06;29.10;96.40
666;DHT22;315;48.738;9.126;2022-10-16T09:59:32;27.40;97.70
666;DHT22;315;48.738;9.126;2022-10-16T10:02:03;26.20;99.90
666;DHT22;315;48.738;9.126;2022-10-16T10:04:39;26.00;99.90
666;DHT22;315;48.738;9.126;2022-10-16T10:07:07;26.20;99.90
666;DHT22;315;48.738;9.126;2022-10-16T10:09:44;26.20;99.90
666;DHT22;315;48.738;9.126;2022-10-16T10:12:19;25.30;99.90
666;DHT22;315;48.738;9.126;2022-10-16T10:14:54;25.20;99.90
666;DHT22;315;48.738;9.126;2022-10-16T10:17:28;24.30;99.90
666;DHT22;315;48.738;9.126;2022-10-16T10:22:39;25.30;99.90
666;DHT22;315;48.738;9.126;2022-10-16T10:30:55;26.80;99.80
666;DHT22;315;48.738;9.126;2022-10-16T10:36:06;26.10;99.90
666;DHT22;315;48.738;9.126;2022-10-16T10:38:53;26.10;99.90
666;DHT22;315;48.738;9.126;2022-10-16T10:41:56;25.90;99.90
666;DHT22;315;48.738;9.126;2022-10-16T10:45:11;26.30;99.90
666;DHT22;315;48.738;9.126;2022-10-16T10:50:52;28.20;95.50
666;DHT22;315;48.738;9.126;2022-10-16T10:58:54;34.90;73.30
666;DHT22;315;48.738;9.126;2022-10-16T11:04:58;35.10;63.60
666;DHT22;315;48.738;9.126;2022-10-16T11:07:41;35.70;61.00
666;DHT22;315;48.738;9.126;2022-10-16T11:10:15;35.20;59.00
666;DHT22;315;48.738;9.126;2022-10-16T11:12:49;35.20;58.00
666;DHT22;315;48.738;9.126;2022-10-16T11:15:21;34.70;57.30
666;DHT22;315;48.738;9.126;2022-10-16T11:18:19;33.10;56.80
666;DHT22;315;48.738;9.126;2022-10-16T11:21:00;30.50;62.20
666;DHT22;315;48.738;9.126;2022-10-16T11:23:32;28.40;68.90
666;DHT22;315;48.738;9.126;2022-10-16T11:26:04;27.00;76.00
666;DHT22;315;48.738;9.126;2022-10-16T11:31:00;26.90;83.90
666;DHT22;315;48.738;9.126;2022-10-16T11:41:15;29.40;76.80
666;DHT22;315;48.738;9.126;2022-10-16T11:43:48;29.80;74.80
666;DHT22;315;48.738;9.126;2022-10-16T11:46:19;29.40;74.40
666;DHT22;315;48.738;9.126;2022-10-16T11:51:45;30.90;71.10
666;DHT22;315;48.738;9.126;2022-10-16T11:56:44;32.20;65.00
666;DHT22;315;48.738;9.126;2022-10-16T12:00:02;33.30;62.60
666;DHT22;315;48.738;9.126;2022-10-16T12:02:27;33.30;60.40
666;DHT22;315;48.738;9.126;2022-10-16T12:07:35;35.50;56.40
666;DHT22;315;48.738;9.126;2022-10-16T12:10:20;36.50;54.60
666;DHT22;315;48.738;9.126;2022-10-16T12:12:46;37.20;51.70
666;DHT22;315;48.738;9.126;2022-10-16T12:17:49;38.90;49.20
666;DHT22;315;48.738;9.126;2022-10-16T12:20:32;39.20;48.00
666;DHT22;315;48.738;9.126;2022-10-16T12:23:05;39.40;46.50
666;DHT22;315;48.738;9.126;2022-10-16T12:25:36;38.70;46.60
666;DHT22;315;48.738;9.126;2022-10-16T12:30:41;37.00;48.10
666;DHT22;315;48.738;9.126;2022-10-16T12:33:25;37.30;48.30
666;DHT22;315;48.738;9.126;2022-10-16T12:35:52;37.10;48.00
666;DHT22;315;48.738;9.126;2022-10-16T12:38:20;36.50;48.50
666;DHT22;315;48.738;9.126;2022-10-16T12:41:01;35.30;49.20
666;DHT22;315;48.738;9.126;2022-10-16T12:48:38;32.70;52.90
666;DHT22;315;48.738;9.126;2022-10-16T12:51:12;32.00;53.80
666;DHT22;315;48.738;9.126;2022-10-16T12:53:38;30.80;55.80
666;DHT22;315;48.738;9.126;2022-10-16T12:58:53;28.70;58.80
666;DHT22;315;48.738;9.126;2022-10-16T13:16:01;27.10;78.70
666;DHT22;315;48.738;9.126;2022-10-16T13:21:17;27.20;78.70
666;DHT22;315;48.738;9.126;2022-10-16T13:23:59;27.00;78.30
666;DHT22;315;48.738;9.126;2022-10-16T13:26:56;26.80;78.50
666;DHT22;315;48.738;9.126;2022-10-16T13:29:30;26.60;80.50
666;DHT22;315;48.738;9.126;2022-10-16T13:31:56;26.30;82.70
666;DHT22;315;48.738;9.126;2022-10-16T13:34:23;26.40;83.00
666;DHT22;315;48.738;9.126;2022-10-16T13:36:50;26.50;82.60
666;DHT22;315;48.738;9.126;2022-10-16T13:44:39;26.40;82.60
666;DHT22;315;48.738;9.126;2022-10-16T13:47:10;26.50;84.00
666;DHT22;315;48.738;9.126;2022-10-16T13:49:39;26.60;81.80
666;DHT22;315;48.738;9.126;2022-10-16T13:52:05;26.70;81.70
666;DHT22;315;48.738;9.126;2022-10-16T13:54:30;26.60;81.20
666;DHT22;315;48.738;9.126;2022-10-16T13:57:04;26.40;81.90
666;DHT22;315;48.738;9.126;2022-10-16T13:59:34;26.40;84.00
666;DHT22;315;48.738;9.126;2022-10-16T14:02:04;26.50;84.50
666;DHT22;315;48.738;9.126;2022-10-16T14:04:32;26.20;85.40
666;DHT22;315;48.738;9.126;2022-10-16T14:06:58;26.20;87.10
666;DHT22;315;48.738;9.126;2022-10-16T14:09:29;26.10;85.70
666;DHT22;315;48.738;9.126;2022-10-16T14:12:01;26.10;89.20
666;DHT22;315;48.738;9.126;2022-10-16T14:14:34;25.80;90.50
666;DHT22;315;48.738;9.126;2022-10-16T14:17:00;25.60;92.00
666;DHT22;315;48.738;9.126;2022-10-16T14:19:27;25.40;94.20
666;DHT22;315;48.738;9.126;2022-10-16T14:21:54;25.30;95.70
666;DHT22;315;48.738;9.126;2022-10-16T14:24:32;25.10;95.90
666;DHT22;315;48.738;9.126;2022-10-16T14:26:59;24.90;97.00
666;DHT22;315;48.738;9.126;2022-10-16T14:29:26;24.90;99.20
666;DHT22;315;48.738;9.126;2022-10-16T14:32:04;24.70;99.90
666;DHT22;315;48.738;9.126;2022-10-16T14:34:33;24.70;99.90
666;DHT22;315;48.738;9.126;2022-10-16T14:37:26;24.60;99.90
666;DHT22;315;48.738;9.126;2022-10-16T14:39:53;24.60;99.90
666;DHT22;315;48.738;9.126;2022-10-16T14:42:21;24.60;99.90
666;DHT22;315;48.738;9.126;2022-10-16T14:44:50;24.50;99.90
666;DHT22;315;48.738;9.126;2022-10-16T14:47:20;24.60;99.90
666;DHT22;315;48.738;9.126;2022-10-16T14:49:49;24.60;99.90
666;DHT22;315;48.738;9.126;2022-10-16T14:52:15;24.60;99.90
666;DHT22;315;48.738;9.126;2022-10-16T14:54:40;24.50;99.90
666;DHT22;315;48.738;9.126;2022-10-16T14:57:16;24.50;99.90
666;DHT22;315;48.738;9.126;2022-10-16T14:59:42;24.40;99.90
666;DHT22;315;48.738;9.126;2022-10-16T15:04:51;24.20;99.90
666;DHT22;315;48.738;9.126;2022-10-16T15:07:16;24.20;99.90
666;DHT22;315;48.738;9.126;2022-10-16T15:09:42;24.20;99.90
666;DHT22;315;48.738;9.126;2022-10-16T15:12:08;24.20;99.90
666;DHT22;315;48.738;9.126;2022-10-16T15:14:33;24.20;99.90
666;DHT22;315;48.738;9.126;2022-10-16T15:16:59;24.20;99.90
666;DHT22;315;48.738;9.126;2022-10-16T15:19:25;24.10;99.90
666;DHT22;315;48.738;9.126;2022-10-16T15:21:50;24.00;99.90
666;DHT22;315;48.738;9.126;2022-10-16T15:24:16;24.00;99.90
666;DHT22;315;48.738;9.126;2022-10-16T15:26:42;23.90;99.90
666;DHT22;315;48.738;9.126;2022-10-16T15:29:07;23.80;99.90
666;DHT22;315;48.738;9.126;2022-10-16T15:31:33;23.70;99.90
666;DHT22;315;48.738;9.126;2022-10-16T15:33:59;23.60;99.90
666;DHT22;315;48.738;9.126;2022-10-16T15:36:31;23.40;99.90
666;DHT22;315;48.738;9.126;2022-10-16T15:38:59;23.40;99.90
666;DHT22;315;48.738;9.126;2022-10-16T15:41:24;23.30;99.90
666;DHT22;315;48.738;9.126;2022-10-16T15:43:50;23.30;99.90
666;DHT22;315;48.738;9.126;2022-10-16T15:46:19;23.30;99.90
666;DHT22;315;48.738;9.126;2022-10-16T15:48:49;23.30;99.90
666;DHT22;315;48.738;9.126;2022-10-16T15:51:15;23.20;99.90
666;DHT22;315;48.738;9.126;2022-10-16T15:53:41;23.10;99.90
666;DHT22;315;48.738;9.126;2022-10-16T15:56:08;23.00;99.90
666;DHT22;315;48.738;9.126;2022-10-16T15:58:34;22.90;99.90
666;DHT22;315;48.738;9.126;2022-10-16T16:01:01;22.80;99.90
666;DHT22;315;48.738;9.126;2022-10-16T16:03:27;22.70;99.90
666;DHT22;315;48.738;9.126;2022-10-16T16:05:54;22.60;99.90
666;DHT22;315;48.738;9.126;2022-10-16T16:08:19;22.50;99.90
666;DHT22;315;48.738;9.126;2022-10-16T16:10:45;22.50;99.90
666;DHT22;315;48.738;9.126;2022-10-16T16:13:11;22.30;99.90
666;DHT22;315;48.738;9.126;2022-10-16T16:15:40;22.10;99.90
666;DHT22;315;48.738;9.126;2022-10-16T16:18:06;22.00;99.90
666;DHT22;315;48.738;9.126;2022-10-16T16:20:32;21.80;99.90
666;DHT22;315;48.738;9.126;2022-10-16T16:22:57;21.70;99.90
666;DHT22;315;48.738;9.126;2022-10-16T16:25:23;21.70;99.90
666;DHT22;315;48.738;9.126;2022-10-16T16:27:48;21.60;99.90
666;DHT22;315;48.738;9.126;2022-10-16T16:30:14;21.50;99.90
666;DHT22;315;48.738;9.126;2022-10-16T16:32:40;21.40;99.90
666;DHT22;315;48.738;9.126;2022-10-16T16:35:06;21.30;99.90
666;DHT22;315;48.738;9.126;2022-10-16T16:37:31;21.20;99.90
666;DHT22;315;48.738;9.126;2022-10-16T16:39:57;21.10;99.90
666;DHT22;315;48.738;9.126;2022-10-16T16:42:26;20.90;99.90
666;DHT22;315;48.738;9.126;2022-10-16T16:44:52;20.70;99.90
666;DHT22;315;48.738;9.126;2022-10-16T16:47:18;20.60;99.90
666;DHT22;315;48.738;9.126;2022-10-16T16:49:44;20.50;99.90
666;DHT22;315;48.738;9.126;2022-10-16T16:52:11;20.40;99.90
666;DHT22;315;48.738;9.126;2022-10-16T16:54:37;20.30;99.90
666;DHT22;315;48.738;9.126;2022-10-16T16:57:02;20.30;99.90
666;DHT22;315;48.738;9.126;2022-10-16T16:59:29;20.20;99.90
666;DHT22;315;48.738;9.126;2022-10-16T17:01:58;20.20;99.90
666;DHT22;315;48.738;9.126;2022-10-16T17:04:24;20.10;99.90
666;DHT22;315;48.738;9.126;2022-10-16T17:06:49;20.10;99.90
666;DHT22;315;48.738;9.126;2022-10-16T17:09:15;20.00;99.90
666;DHT22;315;48.738;9.126;2022-10-16T17:11:41;19.90;99.90
666;DHT22;315;48.738;9.126;2022-10-16T17:14:08;19.90;99.90
666;DHT22;315;48.738;9.126;2022-10-16T17:16:36;19.80;99.90
666;DHT22;315;48.738;9.126;2022-10-16T17:19:07;19.70;99.90
666;DHT22;315;48.738;9.126;2022-10-16T17:21:33;19.70;99.90
666;DHT22;315;48.738;9.126;2022-10-16T17:24:00;19.60;99.90
666;DHT22;315;48.738;9.126;2022-10-16T17:26:26;19.50;99.90
666;DHT22;315;48.738;9.126;2022-10-16T17:28:54;19.40;99.90
666;DHT22;315;48.738;9.126;2022-10-16T17:31:27;19.30;99.90
666;DHT22;315;48.738;9.126;2022-10-16T17:33:53;19.20;99.90
666;DHT22;315;48.738;9.126;2022-10-16T17:36:20;19.20;99.90
666;DHT22;315;48.738;9.126;2022-10-16T17:38:46;19.10;99.90
666;DHT22;315;48.738;9.126;2022-10-16T17:41:16;19.10;99.90
666;DHT22;315;48.738;9.126;2022-10-16T17:43:42;19.10;99.90
666;DHT22;315;48.738;9.126;2022-10-16T17:46:08;19.10;99.90
666;DHT22;315;48.738;9.126;2022-10-16T17:48:39;19.10;99.90
666;DHT22;315;48.738;9.126;2022-10-16T17:51:06;19.10;99.90
666;DHT22;315;48.738;9.126;2022-10-16T17:53:33;19.10;99.90
666;DHT22;315;48.738;9.126;2022-10-16T17:56:07;19.00;99.90
666;DHT22;315;48.738;9.126;2022-10-16T17:58:33;18.90;99.90
666;DHT22;315;48.738;9.126;2022-10-16T18:00:59;18.80;99.90
666;DHT22;315;48.738;9.126;2022-10-16T18:03:25;18.70;99.90
666;DHT22;315;48.738;9.126;2022-10-16T18:05:52;18.60;99.90
666;DHT22;315;48.738;9.126;2022-10-16T18:08:17;18.60;99.90
666;DHT22;315;48.738;9.126;2022-10-16T18:10:47;18.60;99.90
666;DHT22;315;48.738;9.126;2022-10-16T18:13:13;18.60;99.90
666;DHT22;315;48.738;9.126;2022-10-16T18:15:39;18.60;99.90
666;DHT22;315;48.738;9.126;2022-10-16T18:18:05;18.70;99.90
666;DHT22;315;48.738;9.126;2022-10-16T18:20:31;18.70;99.90
666;DHT22;315;48.738;9.126;2022-10-16T18:22:56;18.60;99.90
666;DHT22;315;48.738;9.126;2022-10-16T18:25:22;18.50;99.90
666;DHT22;315;48.738;9.126;2022-10-16T18:27:47;18.40;99.90
666;DHT22;315;48.738;9.126;2022-10-16T18:30:13;18.50;99.90